Terminal Aerodrome Forecast
Issued by NWS Goodland, KS

Home | Current Version | Previous Version | Text Only | Print | Product List | Glossary On
Versions: 1 2 3 4 5 6 7 8 9 10 11 12 13 14 15 16 17
000
FTUS43 KGLD 201100
TAFGLD
TAF
KGLD 201139Z 2012/2112 VRB05KT 3SM BR SCT120
     FM201500 05008KT P6SM VCSH BKN070
     FM201800 09008KT P6SM -TSRA BKN050CB
     FM210200 VRB06KT P6SM BKN080
     FM210900 34015KT P6SM SCT100=

USA.gov is the U.S. government's official web portal to all federal, state and local government web resources and services.